Terminal Aerodrome Forecast
Issued by NWS

Home | Current Version | Previous Version | Text Only | Print | Product List | Glossary On
Versions: 1 2 3 4 5 6 7 8 9 10 11 12 13 14 15 16
000
FTUS43 KGRR 022335
TAFAZO
TAF
KAZO 022335Z 0300/0324 23015G25KT P6SM SCT040 BKN100
     FM030200 30030G45KT 1/2SM +TSRA OVC035CB
     FM030300 24007KT 5SM -RA BKN035
     FM030500 30007KT 6SM BR VCSH BKN050
     FM030800 27008KT P6SM SCT050
     FM031400 29010G20KT P6SM SCT040=

USA.gov is the U.S. government's official web portal to all federal, state and local government web resources and services.